الصفحة الرئيسية
METAR-TAF:

METAR-TAF

مطار :

مطار سيدني

سيدني, أستراليا

دائرة عرض: 33-57S, خط طول: 151-11E, ارتفاع: 6 متر

مراقبة الطقس الحالي

تاريخ ووقت الإصدار 26 دقيقة قبل الساعة 23:30UTC
ريح 14 عقدة من الجنوب
درجة الحرارة 19°درجة مئوية
الرطوبة 78%
ضغط 1015 hPa
الرؤية 10 كم أو أكثر
غيوم قليلة على ارتفاع 1800 قدم
غيوم مفككة على ارتفاع 2200 قدم
غيوم مفككة على ارتفاع 3000 قدم

METAR: YSSY 102330Z 19014KT 9999 FEW018 BKN022 BKN030 19/15 Q1015 NOSIG

زمن: 10:56 (23:56 UTC)

توقعات

تاريخ ووقت الإصدار 52 دقيقة قبل الساعة 23:04UTC
التوقعات صالحة من11 الساعة 00 UTC إلى 12 الساعة 06 UTC
ريح 15 عقدة من الجنوب/الجنوب الشرقي
الرؤية 10 كم أو أكثر
غيوم مفككة على ارتفاع 2500 قدم
دخان
من 11 الساعة 1200 UTC
ريح 10 عقدة من الجنوب
الرؤية: 9000 متر
غيوم مفككة على ارتفاع 2500 قدم
دخان
من 12 الساعة 0000 UTC
ريح 15 عقدة من الجنوب/الجنوب الشرقي
الرؤية 10 كم أو أكثر
غيوم متفرقة على ارتفاع 2500 قدم
دخان

TAF: YSSY 102304Z 1100/1206 16015KT 9999 FU BKN025 FM111200 19010KT 9000 FU BKN025 FM120000 16015KT 9999 FU SCT025

أرصاد الطقس والتوقعات من أكثر من 4000 مطار (تقارير الطقس للمطار METAR والتنبؤ بالطقس بالمطارTAF).

المحطات المتاحة هي النقط الصفراء والحمراء على الخريطة.

حرك المؤشر فوق النقطة لمعرفة اسم المحطة.

ثم انقر لمعرفة أرصاد وتوقعات الطقس.

لتغيير الخارطة: اضغط على الأزرار الخضراء مع رمز الصليب الأسود للتكبير. على الزر الأخضر مع شرطة للتصغير، أو على الأسهم الخضراء للخرائط المجاورة.


METAR-TAF: